Time;durP1;ratioP1;P1;durP2;ratioP2;P2;SDS_P1;SDS_P2;PMS_P1;PMS_P2;Temp;Humidity;BMP_temperature;BMP_pressure;BME280_temperature;BME280_humidity;BME280_pressure;Samples;Min_cycle;Max_cycle;Signal;HPM_P1;HPM_P2
2021/10/31 00:02:21;;;;;;;;;;;11.10;99.90;;;;;;8329284;28;20430;-73
2021/10/31 00:06:23;;;;;;;;;;;11.10;99.90;;;;;;8334455;28;20015;-73
2021/10/31 00:10:25;;;;;;;;;;;11.10;99.90;;;;;;8329198;28;20384;-73
2021/10/31 00:14:26;;;;;;;;;;;11.10;99.90;;;;;;8325253;28;20024;-73
2021/10/31 00:18:28;;;;;;;;;;;11.10;99.90;;;;;;8330671;28;19928;-73
2021/10/31 00:22:30;;;;;;;;;;;11.10;99.90;;;;;;8325096;28;19921;-73
2021/10/31 00:26:32;;;;;;;;;;;11.10;99.90;;;;;;8333217;28;20403;-73
2021/10/31 00:30:33;;;;;;;;;;;11.10;99.90;;;;;;8337105;28;20296;-72
2021/10/31 00:34:35;;;;;;;;;;;11.10;99.90;;;;;;8350880;28;20379;-72
2021/10/31 00:38:37;;;;;;;;;;;11.00;99.90;;;;;;8344700;28;19920;-73
2021/10/31 00:42:39;;;;;;;;;;;11.00;99.90;;;;;;8369596;28;20015;-73
2021/10/31 00:46:41;;;;;;;;;;;11.00;99.90;;;;;;8334988;28;19929;-73
2021/10/31 00:50:43;;;;;;;;;;;11.00;99.90;;;;;;8344037;28;19925;-72
2021/10/31 00:54:45;;;;;;;;;;;11.00;99.90;;;;;;8345618;28;19961;-73
2021/10/31 00:58:46;;;;;;;;;;;11.00;99.90;;;;;;8341752;28;20272;-73
2021/10/31 01:02:48;;;;;;;;;;;11.00;99.90;;;;;;8353334;28;20343;-72
2021/10/31 01:06:57;;;;;;;;;;;11.00;99.90;;;;;;8335322;28;19936;-73
2021/10/31 01:11:05;;;;;;;;;;;11.00;99.90;;;;;;8353640;28;19974;-73
2021/10/31 01:15:17;;;;;;;;;;;10.90;99.90;;;;;;8334365;28;19920;-73
2021/10/31 01:19:34;;;;;;;;;;;10.90;99.90;;;;;;8338502;28;19921;-73
2021/10/31 01:23:49;;;;;;;;;;;10.90;99.90;;;;;;8360825;28;19921;-73
2021/10/31 01:27:57;;;;;;;;;;;10.90;99.90;;;;;;8348989;28;19967;-73
2021/10/31 01:32:08;;;;;;;;;;;10.80;99.90;;;;;;8341967;28;20288;-73
2021/10/31 01:36:16;;;;;;;;;;;10.80;99.90;;;;;;8376629;28;19947;-73
2021/10/31 01:40:23;;;;;;;;;;;10.80;99.90;;;;;;8347443;28;20368;-73
2021/10/31 01:44:41;;;;;;;;;;;10.70;99.90;;;;;;8342031;28;19961;-73
2021/10/31 01:48:52;;;;;;;;;;;10.70;99.90;;;;;;8342029;28;20272;-73
2021/10/31 01:52:57;;;;;;;;;;;10.70;99.90;;;;;;8330446;28;20300;-73
2021/10/31 01:57:01;;;;;;;;;;;10.70;99.90;;;;;;8356361;28;20342;-73
2021/10/31 02:01:05;;;;;;;;;;;10.70;99.90;;;;;;8360290;28;19928;-72
2021/10/31 02:05:12;;;;;;;;;;;10.70;99.90;;;;;;8344161;28;20002;-72
2021/10/31 02:09:16;;;;;;;;;;;10.70;99.90;;;;;;8345090;28;19977;-72
2021/10/31 02:13:18;;;;;;;;;;;10.70;99.90;;;;;;8340862;28;20261;-74
2021/10/31 02:17:20;;;;;;;;;;;10.70;99.90;;;;;;8358235;28;19921;-73
2021/10/31 02:21:26;;;;;;;;;;;10.80;99.90;;;;;;8336400;28;19921;-73
2021/10/31 02:25:27;;;;;;;;;;;10.70;99.90;;;;;;8336203;28;19928;-73
2021/10/31 02:29:29;;;;;;;;;;;10.70;99.90;;;;;;8355713;28;20490;-73
2021/10/31 02:33:31;;;;;;;;;;;10.70;99.90;;;;;;8334311;28;19921;-73
2021/10/31 02:37:32;;;;;;;;;;;10.60;99.90;;;;;;8336405;28;19921;-73
2021/10/31 02:41:34;;;;;;;;;;;10.60;99.90;;;;;;8344695;28;19937;-73
2021/10/31 02:45:36;;;;;;;;;;;10.60;99.90;;;;;;8327704;28;19929;-72
2021/10/31 02:49:38;;;;;;;;;;;10.60;99.90;;;;;;8328073;28;19993;-74
2021/10/31 02:54:12;;;;;;;;;;;10.70;99.90;;;;;;8326159;28;19969;-73
2021/10/31 02:58:19;;;;;;;;;;;10.70;99.90;;;;;;8338311;28;19921;-73
2021/10/31 03:02:23;;;;;;;;;;;10.60;99.90;;;;;;8338868;28;20284;-73
2021/10/31 03:06:25;;;;;;;;;;;10.60;99.90;;;;;;8354389;28;19924;-73
2021/10/31 03:10:26;;;;;;;;;;;10.60;99.90;;;;;;8333234;28;19921;-72
2021/10/31 03:14:28;;;;;;;;;;;10.60;99.90;;;;;;8330972;28;20628;-73
2021/10/31 03:18:30;;;;;;;;;;;10.60;99.90;;;;;;8333457;28;19928;-74
2021/10/31 03:22:32;;;;;;;;;;;10.70;99.90;;;;;;8320552;28;19925;-73
2021/10/31 03:26:33;;;;;;;;;;;10.60;99.90;;;;;;8333501;28;20005;-73
2021/10/31 03:30:35;;;;;;;;;;;10.60;99.90;;;;;;8341078;28;20357;-72
2021/10/31 03:34:37;;;;;;;;;;;10.60;99.90;;;;;;8330284;28;19925;-72
2021/10/31 03:38:38;;;;;;;;;;;10.60;99.90;;;;;;8336648;28;20059;-72
2021/10/31 03:42:40;;;;;;;;;;;10.60;99.90;;;;;;8341248;28;20604;-72
2021/10/31 03:46:42;;;;;;;;;;;10.60;99.90;;;;;;8335611;28;19927;-73
2021/10/31 03:50:44;;;;;;;;;;;10.60;99.90;;;;;;8343246;28;19989;-72
2021/10/31 03:54:45;;;;;;;;;;;10.60;99.90;;;;;;8350123;28;19920;-72
2021/10/31 03:58:47;;;;;;;;;;;10.60;99.90;;;;;;8339550;28;19928;-73
2021/10/31 04:02:49;;;;;;;;;;;10.60;99.90;;;;;;8337312;28;19921;-73
2021/10/31 04:06:50;;;;;;;;;;;10.60;99.90;;;;;;8340337;28;19921;-73
2021/10/31 04:10:52;;;;;;;;;;;10.60;99.90;;;;;;8328910;28;19928;-73
2021/10/31 04:14:54;;;;;;;;;;;10.60;99.90;;;;;;8337246;28;20150;-73
2021/10/31 04:18:55;;;;;;;;;;;10.60;99.90;;;;;;8345698;28;19931;-73
2021/10/31 04:22:59;;;;;;;;;;;10.60;99.90;;;;;;8326644;28;19926;-72
2021/10/31 04:27:02;;;;;;;;;;;10.60;99.90;;;;;;8336359;28;20336;-73
2021/10/31 04:31:03;;;;;;;;;;;10.60;99.90;;;;;;8329293;28;19921;-72
2021/10/31 04:35:06;;;;;;;;;;;10.50;99.90;;;;;;8344021;28;20008;-73
2021/10/31 04:39:07;;;;;;;;;;;10.50;99.90;;;;;;8331839;28;19929;-73
2021/10/31 04:43:12;;;;;;;;;;;10.50;99.90;;;;;;8327369;28;19921;-73
2021/10/31 04:47:14;;;;;;;12.35;6.70;;;10.50;99.90;;;;;;8339526;28;19921;-73
2021/10/31 04:51:15;;;;;;;;;;;10.50;99.90;;;;;;8329557;28;20056;-73
2021/10/31 04:55:17;;;;;;;;;;;10.50;99.90;;;;;;8338967;28;20396;-72
2021/10/31 04:59:19;;;;;;;;;;;10.40;99.90;;;;;;8347099;28;19925;-72
2021/10/31 05:03:21;;;;;;;;;;;10.40;99.90;;;;;;8327097;28;19953;-72
2021/10/31 05:07:22;;;;;;;;;;;10.40;99.90;;;;;;8328568;28;19928;-72
2021/10/31 05:11:24;;;;;;;;;;;10.40;99.90;;;;;;8341353;28;20799;-72
2021/10/31 05:15:26;;;;;;;;;;;10.30;99.90;;;;;;8335871;28;20419;-73
2021/10/31 05:19:28;;;;;;;;;;;10.30;99.90;;;;;;8341274;28;19932;-72
2021/10/31 05:23:29;;;;;;;11.23;6.43;;;10.30;99.90;;;;;;8332350;28;20075;-72
2021/10/31 05:27:31;;;;;;;13.30;6.38;;;10.30;99.90;;;;;;8327130;28;20054;-72
2021/10/31 05:31:33;;;;;;;12.07;6.40;;;10.30;99.90;;;;;;8317265;28;20386;-72
2021/10/31 05:35:35;;;;;;;12.13;6.50;;;10.20;99.90;;;;;;8334583;28;20374;-72
2021/10/31 05:39:37;;;;;;;11.45;6.97;;;10.20;99.90;;;;;;8338586;28;20045;-74
2021/10/31 05:43:40;;;;;;;10.95;6.28;;;10.20;99.90;;;;;;8358128;28;21253;-73
2021/10/31 05:47:44;;;;;;;17.65;7.50;;;10.20;99.90;;;;;;8357176;28;20045;-73
2021/10/31 05:51:45;;;;;;;13.25;6.82;;;10.10;99.90;;;;;;8363580;28;20132;-73
2021/10/31 05:55:47;;;;;;;17.27;7.32;;;10.10;99.90;;;;;;8364180;28;20078;-73
2021/10/31 05:59:49;;;;;;;15.90;7.55;;;10.10;99.90;;;;;;8368001;28;20519;-73
2021/10/31 06:03:51;;;;;;;14.85;7.57;;;10.10;99.90;;;;;;8377935;28;20055;-73
2021/10/31 06:07:53;;;;;;;11.63;7.63;;;10.10;99.90;;;;;;8356149;28;20112;-73
2021/10/31 06:11:54;;;;;;;13.10;6.72;;;10.10;99.90;;;;;;8349182;28;20103;-73
2021/10/31 06:15:56;;;;;;;13.32;7.22;;;10.10;99.90;;;;;;8369749;28;20045;-73
2021/10/31 06:20:00;;;;;;;13.70;7.43;;;10.10;99.90;;;;;;8371084;28;20048;-73
2021/10/31 06:24:02;;;;;;;13.30;7.70;;;10.10;99.90;;;;;;8348750;28;20073;-73
2021/10/31 06:28:04;;;;;;;13.00;7.15;;;10.10;99.90;;;;;;8359735;28;20049;-73
2021/10/31 06:32:06;;;;;;;15.15;7.22;;;10.10;99.90;;;;;;8373391;28;20059;-73
2021/10/31 06:36:08;;;;;;;12.40;7.45;;;10.10;99.90;;;;;;8363659;28;20049;-73
2021/10/31 06:40:11;;;;;;;12.18;6.80;;;10.10;99.90;;;;;;8356631;28;20049;-73
2021/10/31 06:44:13;;;;;;;12.32;6.78;;;10.10;99.90;;;;;;8367902;28;20045;-73
2021/10/31 06:48:14;;;;;;;12.52;7.00;;;10.10;99.90;;;;;;8359881;28;20400;-73
2021/10/31 06:52:17;;;;;;;15.10;7.43;;;10.10;99.90;;;;;;8359003;28;20046;-73
2021/10/31 06:56:18;;;;;;;13.82;7.28;;;10.10;99.90;;;;;;8361898;28;20060;-73
2021/10/31 07:00:20;;;;;;;14.00;7.03;;;10.10;99.90;;;;;;8341103;28;20045;-73
2021/10/31 07:04:22;;;;;;;15.15;8.80;;;10.00;99.90;;;;;;8366248;28;20044;-73
2021/10/31 07:08:24;;;;;;;14.68;7.88;;;10.10;99.90;;;;;;8345724;28;20056;-73
2021/10/31 07:12:25;;;;;;;13.95;7.70;;;10.00;99.90;;;;;;8355170;28;20053;-73
2021/10/31 07:16:27;;;;;;;15.68;7.88;;;10.10;99.90;;;;;;8356024;28;20056;-73
2021/10/31 07:20:31;;;;;;;12.45;6.85;;;10.10;99.90;;;;;;8342237;28;20049;-73
2021/10/31 07:24:33;;;;;;;11.55;6.70;;;10.10;99.90;;;;;;8347024;28;20049;-73
2021/10/31 07:28:35;;;;;;;11.98;6.93;;;10.20;99.90;;;;;;8348133;28;20118;-72
2021/10/31 07:32:37;;;;;;;13.20;6.88;;;10.20;99.90;;;;;;8339027;28;20049;-73
2021/10/31 07:36:40;;;;;;;14.52;7.15;;;10.30;99.90;;;;;;8347340;28;20046;-73
2021/10/31 07:40:43;;;;;;;12.32;6.63;;;10.30;99.90;;;;;;8353582;28;20041;-73
2021/10/31 07:44:46;;;;;;;12.70;7.43;;;10.30;99.90;;;;;;8356110;28;20048;-73
2021/10/31 07:48:47;;;;;;;14.10;7.05;;;10.40;99.90;;;;;;8352327;28;20045;-73
2021/10/31 07:52:49;;;;;;;13.90;7.82;;;10.40;99.90;;;;;;8359487;28;20568;-73
2021/10/31 07:56:55;;;;;;;12.10;7.57;;;10.50;99.90;;;;;;8352806;28;20408;-73
2021/10/31 08:00:57;;;;;;;13.20;7.72;;;10.60;99.90;;;;;;8353964;28;20352;-73
2021/10/31 08:04:59;;;;;;;12.95;7.32;;;10.60;99.90;;;;;;8346820;28;20045;-73
2021/10/31 08:09:01;;;;;;;13.82;7.78;;;10.70;99.90;;;;;;8346143;28;20535;-72
2021/10/31 08:13:03;;;;;;;13.60;7.45;;;10.90;99.90;;;;;;8359829;28;20041;-73
2021/10/31 08:17:05;;;;;;;13.70;7.30;;;11.00;99.90;;;;;;8353391;28;20053;-73
2021/10/31 08:21:08;;;;;;;;;;;11.10;99.90;;;;;;8387856;28;20078;-73
2021/10/31 08:25:10;;;;;;;;;;;11.20;99.90;;;;;;8356073;28;20321;-72
2021/10/31 08:29:13;;;;;;;;;;;11.30;99.90;;;;;;8354579;28;19977;-73
2021/10/31 08:33:19;;;;;;;;;;;11.40;99.90;;;;;;8359722;28;20209;-73
2021/10/31 08:37:20;;;;;;;;;;;11.40;99.90;;;;;;8354965;28;19928;-72
2021/10/31 08:41:23;;;;;;;;;;;11.40;99.90;;;;;;8346374;28;19921;-72
2021/10/31 08:45:24;;;;;;;;;;;11.40;99.90;;;;;;8357463;28;20362;-73
2021/10/31 08:49:26;;;;;;;;;;;11.50;99.90;;;;;;8357351;28;19990;-73
2021/10/31 08:53:28;;;;;;;;;;;11.60;99.90;;;;;;8363861;28;20398;-72
2021/10/31 08:57:29;;;;;;;;;;;11.80;99.90;;;;;;8389204;28;20398;-73
2021/10/31 09:01:31;;;;;;;;;;;11.90;99.90;;;;;;8363991;28;19943;-73
2021/10/31 09:05:33;;;;;;;;;;;12.10;99.90;;;;;;8363557;28;19950;-73
2021/10/31 09:09:35;;;;;;;;;;;12.30;99.90;;;;;;8362273;28;19920;-73
2021/10/31 09:13:37;;;;;;;;;;;12.50;99.90;;;;;;8363212;28;19928;-73
2021/10/31 09:17:38;;;;;;;;;;;12.60;99.90;;;;;;8365623;28;19931;-73
2021/10/31 09:21:41;;;;;;;;;;;12.70;99.90;;;;;;8354320;28;20556;-73
2021/10/31 09:25:42;;;;;;;;;;;12.80;99.90;;;;;;8358934;28;19927;-73
2021/10/31 09:29:44;;;;;;;;;;;13.00;99.90;;;;;;8384691;28;19939;-73
2021/10/31 09:33:47;;;;;;;;;;;13.10;99.90;;;;;;8361197;28;19928;-73
2021/10/31 09:37:53;;;;;;;;;;;13.30;99.90;;;;;;8363841;28;19932;-73
2021/10/31 09:41:55;;;;;;;;;;;13.30;99.90;;;;;;8348564;28;19998;-73
2021/10/31 09:45:59;;;;;;;;;;;13.30;99.90;;;;;;8367959;28;20373;-73
2021/10/31 09:50:00;;;;;;;;;;;13.30;99.90;;;;;;8361738;28;19928;-73
2021/10/31 09:54:02;;;;;;;;;;;13.40;99.90;;;;;;8367217;28;19928;-73
2021/10/31 09:58:06;;;;;;;;;;;13.50;99.90;;;;;;8366917;28;19924;-73
2021/10/31 10:06:11;;;;;;;;;;;13.90;99.90;;;;;;8362587;28;19970;-73
2021/10/31 10:10:14;;;;;;;;;;;14.10;99.90;;;;;;8366944;28;19928;-73
2021/10/31 10:14:24;;;;;;;;;;;14.30;99.90;;;;;;8368698;28;20297;-73
2021/10/31 10:18:35;;;;;;;;;;;14.50;99.90;;;;;;8358132;28;19920;-73
2021/10/31 10:22:38;;;;;;;;;;;14.70;99.90;;;;;;8356037;28;19947;-73
2021/10/31 10:26:43;;;;;;;;;;;14.90;99.90;;;;;;8371795;28;19920;-73
2021/10/31 10:30:45;;;;;;;;;;;15.00;99.90;;;;;;8361108;28;19921;-73
2021/10/31 10:34:48;;;;;;;;;;;15.10;99.90;;;;;;8358641;28;19943;-73
2021/10/31 10:39:06;;;;;;;;;;;15.00;99.90;;;;;;8357859;28;20265;-73
2021/10/31 10:43:08;;;;;;;;;;;15.00;99.90;;;;;;8362652;28;19924;-73
2021/10/31 10:47:12;;;;;;;;;;;14.80;99.90;;;;;;8379604;28;20387;-73
2021/10/31 10:51:17;;;;;;;;;;;14.70;99.90;;;;;;8362672;28;19924;-73
2021/10/31 10:55:20;;;;;;;;;;;14.60;99.90;;;;;;8378822;28;20371;-73
2021/10/31 10:59:25;;;;;;;;;;;14.50;99.90;;;;;;8365799;28;19927;-73
2021/10/31 11:03:30;;;;;;;;;;;14.40;99.90;;;;;;8361838;28;19925;-73
2021/10/31 11:07:33;;;;;;;;;;;14.30;99.90;;;;;;8361529;28;19932;-73
2021/10/31 11:11:35;;;;;;;;;;;14.30;99.90;;;;;;8358606;28;19927;-73
2021/10/31 11:15:37;;;;;;;;;;;14.20;99.90;;;;;;8356159;28;19935;-73
2021/10/31 11:19:40;;;;;;;;;;;14.20;99.90;;;;;;8358402;28;19931;-73
2021/10/31 11:23:44;;;;;;;;;;;14.20;99.90;;;;;;8359464;28;19928;-73
2021/10/31 11:27:47;;;;;;;;;;;14.20;99.90;;;;;;8357145;28;19933;-72
2021/10/31 11:31:49;;;;;;;;;;;14.10;99.90;;;;;;8382594;28;19925;-73
2021/10/31 11:35:52;;;;;;;;;;;14.10;99.90;;;;;;8353635;28;19939;-73
2021/10/31 11:39:58;;;;;;;;;;;14.10;99.90;;;;;;8400385;28;19974;-73
2021/10/31 11:44:00;;;;;;;;;;;14.00;99.90;;;;;;8363949;28;19929;-73
2021/10/31 11:48:11;;;;;;;;;;;14.00;99.90;;;;;;8356556;28;19928;-73
2021/10/31 11:52:42;;;;;;;;;;;14.00;99.90;;;;;;8366653;28;19991;-73
2021/10/31 11:56:51;;;;;;;;;;;14.00;99.90;;;;;;8364292;28;19931;-73
2021/10/31 12:00:54;;;;;;;;;;;14.00;99.90;;;;;;8361189;28;19924;-73
2021/10/31 12:05:15;;;;;;;;;;;14.00;99.90;;;;;;8365967;28;19924;-73
2021/10/31 12:09:25;;;;;;;;;;;14.10;99.90;;;;;;8362991;28;20262;-72
2021/10/31 12:13:38;;;;;;;;;;;14.10;99.90;;;;;;8365274;28;19931;-73
2021/10/31 12:18:00;;;;;;;;;;;14.10;99.90;;;;;;8360545;28;19928;-73
2021/10/31 12:22:06;;;;;;;;;;;14.20;99.90;;;;;;8358866;28;19924;-73
2021/10/31 12:26:18;;;;;;;;;;;14.20;99.90;;;;;;8357010;28;19920;-72
2021/10/31 12:30:26;;;;;;;;;;;14.20;99.90;;;;;;8367676;28;19982;-73
2021/10/31 12:34:34;;;;;;;;;;;14.30;99.90;;;;;;8368622;28;20380;-73
2021/10/31 12:38:37;;;;;;;;;;;14.40;99.90;;;;;;8361974;28;19928;-73
2021/10/31 12:42:45;;;;;;;;;;;14.50;99.90;;;;;;8391125;28;20364;-73
2021/10/31 12:47:01;;;;;;;;;;;14.60;99.90;;;;;;8400898;28;19947;-73
2021/10/31 12:51:05;;;;;;;;;;;14.70;99.90;;;;;;8369217;28;19925;-72
2021/10/31 12:55:09;;;;;;;;;;;14.70;99.90;;;;;;8378341;28;19986;-73
2021/10/31 12:59:14;;;;;;;;;;;14.70;99.90;;;;;;8365479;28;19928;-73
2021/10/31 13:03:18;;;;;;;;;;;14.70;99.90;;;;;;8364143;28;19921;-72
2021/10/31 13:07:25;;;;;;;;;;;14.80;99.90;;;;;;8372106;28;19927;-73
2021/10/31 13:11:32;;;;;;;;;;;14.80;99.90;;;;;;8365626;28;19947;-73
2021/10/31 13:15:35;;;;;;;;;;;14.90;99.90;;;;;;8364290;28;20258;-73
2021/10/31 13:19:38;;;;;;;;;;;14.90;99.90;;;;;;8372872;28;19928;-73
2021/10/31 13:23:44;;;;;;;;;;;14.90;99.90;;;;;;8359352;28;19994;-73
2021/10/31 13:27:46;;;;;;;;;;;15.00;99.90;;;;;;8368099;28;19920;-73
2021/10/31 13:31:48;;;;;;;;;;;14.90;99.90;;;;;;8365236;28;19932;-73
2021/10/31 13:35:50;;;;;;;;;;;14.90;99.90;;;;;;8365290;28;19968;-73
2021/10/31 13:39:52;;;;;;;;;;;14.90;99.90;;;;;;8359092;28;19944;-73
2021/10/31 13:43:55;;;;;;;;;;;14.90;99.90;;;;;;8364491;28;19920;-73
2021/10/31 13:47:57;;;;;;;;;;;15.00;99.90;;;;;;8369724;28;20276;-73
2021/10/31 13:51:59;;;;;;;;;;;15.00;99.90;;;;;;8370172;28;19920;-73
2021/10/31 13:56:01;;;;;;;;;;;15.00;99.90;;;;;;8397758;28;19943;-73
2021/10/31 14:00:14;;;;;;;;;;;15.00;99.90;;;;;;8360005;28;19928;-73
2021/10/31 14:04:20;;;;;;;;;;;15.10;99.90;;;;;;8373766;28;19927;-73
2021/10/31 14:08:28;;;;;;;;;;;15.20;99.90;;;;;;8382371;28;19931;-73
2021/10/31 14:12:29;;;;;;;;;;;15.30;99.90;;;;;;8363531;28;20262;-73
2021/10/31 14:16:31;;;;;;;;;;;15.30;99.90;;;;;;8358248;28;20369;-73
2021/10/31 14:20:39;;;;;;;;;;;15.40;99.90;;;;;;8360980;28;19928;-73
2021/10/31 14:24:55;;;;;;;;;;;15.40;99.90;;;;;;8365701;28;20241;-73
2021/10/31 14:28:57;;;;;;;;;;;15.50;99.90;;;;;;8376673;28;19948;-72
2021/10/31 14:33:00;;;;;;;;;;;15.50;99.90;;;;;;8369178;28;20256;-73
2021/10/31 14:37:08;;;;;;;;;;;15.50;99.90;;;;;;8368607;28;19931;-73
2021/10/31 14:41:10;;;;;;;;;;;15.50;99.90;;;;;;8369125;28;19940;-73
2021/10/31 14:45:26;;;;;;;;;;;15.60;99.90;;;;;;8357828;28;20438;-73
2021/10/31 14:49:28;;;;;;;;;;;15.60;99.90;;;;;;8385442;28;19935;-73
2021/10/31 14:53:29;;;;;;;;;;;15.60;99.90;;;;;;8356822;28;19982;-73
2021/10/31 14:57:38;;;;;;;;;;;15.50;99.90;;;;;;8380884;28;19924;-73
2021/10/31 15:01:48;;;;;;;;;;;15.50;99.90;;;;;;8359823;28;20430;-73
2021/10/31 15:05:50;;;;;;;;;;;15.40;99.90;;;;;;8354550;28;19952;-73
2021/10/31 15:09:52;;;;;;;;;;;15.40;99.90;;;;;;8364135;28;19920;-73
2021/10/31 15:13:54;;;;;;;;;;;15.20;99.90;;;;;;8349312;28;20528;-73
2021/10/31 15:17:55;;;;;;;;;;;15.10;99.90;;;;;;8351992;28;20294;-73
2021/10/31 15:21:57;;;;;;;;;;;15.00;99.90;;;;;;8354598;28;20383;-73
2021/10/31 15:25:59;;;;;;;;;;;15.00;99.90;;;;;;8356215;28;19928;-74
2021/10/31 15:30:09;;;;;;;;;;;15.00;99.90;;;;;;8351960;28;20014;-73
2021/10/31 15:34:11;;;;;;;;;;;14.90;99.90;;;;;;8327211;28;20004;-75
2021/10/31 15:38:12;;;;;;;;;;;14.90;99.90;;;;;;8328081;28;20422;-73
2021/10/31 15:42:14;;;;;;;;;;;14.90;99.90;;;;;;8345500;28;19975;-74
2021/10/31 15:46:16;;;;;;;;;;;14.80;99.90;;;;;;8326350;28;19921;-73
2021/10/31 15:50:17;;;;;;;;;;;14.80;99.90;;;;;;8325823;28;20465;-73
2021/10/31 15:54:22;;;;;;;;;;;14.80;99.90;;;;;;8326110;28;20356;-73
2021/10/31 15:58:27;;;;;;;;;;;14.80;99.90;;;;;;8323483;28;19969;-74
2021/10/31 16:02:33;;;;;;;;;;;14.80;99.90;;;;;;8326216;28;19920;-73
2021/10/31 16:06:35;;;;;;;;;;;14.80;99.90;;;;;;8327524;28;19920;-74
2021/10/31 16:10:37;;;;;;;;;;;14.80;99.90;;;;;;8323798;28;19921;-73
2021/10/31 16:14:39;;;;;;;;;;;14.80;99.90;;;;;;8346481;28;19936;-73
2021/10/31 16:18:40;;;;;;;;;;;14.70;99.90;;;;;;8326937;28;19921;-73
2021/10/31 16:22:43;;;;;;;;;;;14.70;99.90;;;;;;8327319;28;19929;-73
2021/10/31 16:26:45;;;;;;;;;;;14.70;99.90;;;;;;8323726;28;19920;-73
2021/10/31 16:30:48;;;;;;;;;;;14.70;99.90;;;;;;8325722;28;19982;-73
2021/10/31 16:34:50;;;;;;;;;;;14.70;99.90;;;;;;8327894;28;19929;-73
2021/10/31 16:38:51;;;;;;;;;;;14.70;99.90;;;;;;8344538;28;19932;-73
2021/10/31 16:42:53;;;;;;;;;;;14.70;99.90;;;;;;8328130;28;20384;-73
2021/10/31 16:46:55;;;;;;;;;;;14.70;99.90;;;;;;8328746;28;19928;-73
2021/10/31 16:50:57;;;;;;;;;;;14.80;99.90;;;;;;8327626;28;19940;-73
2021/10/31 16:54:59;;;;;;;;;;;14.80;99.90;;;;;;8328448;28;19929;-73
2021/10/31 16:59:04;;;;;;;;;;;14.80;99.90;;;;;;8329478;28;19925;-73
2021/10/31 17:03:05;;;;;;;;;;;14.70;99.90;;;;;;8345359;28;19982;-74
2021/10/31 17:07:07;;;;;;;;;;;14.80;99.90;;;;;;8325267;28;20373;-73
2021/10/31 17:11:09;;;;;;;;;;;14.80;99.90;;;;;;8346300;28;20384;-73
2021/10/31 17:15:27;;;;;;;;;;;14.80;99.90;;;;;;8331797;28;20322;-73
2021/10/31 17:19:28;;;;;;;;;;;14.80;99.90;;;;;;8351288;28;19928;-73
2021/10/31 17:23:30;;;;;;;;;;;14.80;99.90;;;;;;8364617;28;19924;-74
2021/10/31 17:27:32;;;;;;;;;;;14.90;99.90;;;;;;8336305;28;19925;-73
2021/10/31 17:31:35;;;;;;;;;;;14.90;99.90;;;;;;8349608;28;19929;-73
2021/10/31 17:35:36;;;;;;;;;;;14.90;99.90;;;;;;8361587;28;20392;-73
2021/10/31 17:39:38;;;;;;;;;;;14.90;99.90;;;;;;8330156;28;19929;-72
2021/10/31 17:43:41;;;;;;;3.50;1.30;;;14.80;99.90;;;;;;8329789;28;20389;-72
2021/10/31 17:47:43;;;;;;;4.25;1.20;;;14.50;99.90;;;;;;8328554;28;20625;-72
2021/10/31 17:51:45;;;;;;;4.10;1.20;;;14.10;99.90;;;;;;8331171;28;20057;-72
2021/10/31 17:55:46;;;;;;;;;;;13.80;99.90;;;;;;8331455;28;20176;-72
2021/10/31 17:59:48;;;;;;;;;;;13.70;99.90;;;;;;8331963;28;20410;-72
2021/10/31 18:03:50;;;;;;;;;;;13.50;99.90;;;;;;8331508;28;19932;-72
2021/10/31 18:07:52;;;;;;;;;;;13.20;99.90;;;;;;8342084;28;19932;-71
2021/10/31 18:11:53;;;;;;;;;;;13.00;99.90;;;;;;8343924;28;19932;-72
2021/10/31 18:15:55;;;;;;;;;;;12.80;99.90;;;;;;8327561;28;19925;-72
2021/10/31 18:19:57;;;;;;;;;;;12.60;99.90;;;;;;8327527;28;19921;-72
2021/10/31 18:24:00;;;;;;;;;;;12.50;99.90;;;;;;8346316;28;19928;-72
2021/10/31 18:28:03;;;;;;;;;;;12.40;99.90;;;;;;8357426;28;19929;-72
2021/10/31 18:32:05;;;;;;;;;;;12.40;99.90;;;;;;8343314;28;20306;-72
2021/10/31 18:36:06;;;;;;;;;;;12.30;99.90;;;;;;8322790;28;20314;-71
2021/10/31 18:40:08;;;;;;;;;;;12.20;99.90;;;;;;8326417;28;19936;-72
2021/10/31 18:44:10;;;;;;;;;;;12.20;99.90;;;;;;8329117;28;19954;-72
2021/10/31 18:48:13;;;;;;;;;;;12.10;99.90;;;;;;8324463;28;19921;-72
2021/10/31 18:52:14;;;;;;;;;;;12.00;99.90;;;;;;8327471;28;20346;-72
2021/10/31 18:56:16;;;;;;;;;;;12.00;99.90;;;;;;8343790;28;19925;-72
2021/10/31 19:00:20;;;;;;;;;;;11.90;99.90;;;;;;8329044;28;19925;-72
2021/10/31 19:04:22;;;;;;;;;;;11.90;99.90;;;;;;8328023;28;20066;-72
2021/10/31 19:08:24;;;;;;;;;;;11.90;99.90;;;;;;8331912;28;19929;-72
2021/10/31 19:12:26;;;;;;;;;;;11.80;99.90;;;;;;8351663;28;19921;-72
2021/10/31 19:16:28;;;;;;;;;;;11.80;99.90;;;;;;8331399;28;19928;-72
2021/10/31 19:20:29;;;;;;;;;;;11.80;99.90;;;;;;8323873;28;19924;-72
2021/10/31 19:24:31;;;;;;;;;;;11.80;99.90;;;;;;8326444;28;20331;-72
2021/10/31 19:28:34;;;;;;;;;;;11.80;99.90;;;;;;8354188;28;19932;-72
2021/10/31 19:32:36;;;;;;;;;;;11.80;99.90;;;;;;8338614;28;19921;-72
2021/10/31 19:36:40;;;;;;;;;;;11.80;99.90;;;;;;8323905;28;19982;-71
2021/10/31 19:40:41;;;;;;;;;;;11.80;99.90;;;;;;8344720;28;20393;-71
2021/10/31 19:44:43;;;;;;;;;;;11.80;99.90;;;;;;8342733;28;19979;-71
2021/10/31 19:48:48;;;;;;;;;;;11.80;99.90;;;;;;8324999;28;19932;-71
2021/10/31 19:52:49;;;;;;;;;;;11.90;99.90;;;;;;8323802;28;19974;-72
2021/10/31 19:56:52;;;;;;;;;;;11.80;99.90;;;;;;8323047;28;20019;-71
2021/10/31 20:00:54;;;;;;;;;;;11.80;99.90;;;;;;8325281;28;20304;-72
2021/10/31 20:04:56;;;;;;;;;;;11.70;99.90;;;;;;8342170;28;19924;-72
2021/10/31 20:08:59;;;;;;;;;;;11.70;99.90;;;;;;8326996;28;19982;-72
2021/10/31 20:13:00;;;;;;;;;;;11.60;99.90;;;;;;8326617;28;19929;-72
2021/10/31 20:17:02;;;;;;;;;;;11.60;99.90;;;;;;8337992;28;19928;-71
2021/10/31 20:21:05;;;;;;;;;;;11.50;99.90;;;;;;8325335;28;19933;-72
2021/10/31 20:25:07;;;;;;;;;;;11.50;99.90;;;;;;8327508;28;19941;-71
2021/10/31 20:29:09;;;;;;;;;;;11.50;99.90;;;;;;8326935;28;20050;-71
2021/10/31 20:33:11;;;;;;;;;;;11.50;99.90;;;;;;8322403;28;19971;-72
2021/10/31 20:37:12;;;;;;;;;;;11.40;99.90;;;;;;8323996;28;20391;-72
2021/10/31 20:41:14;;;;;;;;;;;11.40;99.90;;;;;;8340533;28;20373;-71
2021/10/31 20:45:15;;;;;;;;;;;11.40;99.90;;;;;;8340705;28;20335;-72
2021/10/31 20:49:17;;;;;;;;;;;11.30;99.90;;;;;;8344422;28;19968;-72
2021/10/31 20:53:19;;;;;;;;;;;11.30;99.90;;;;;;8327788;28;19929;-71
2021/10/31 20:57:21;;;;;;;;;;;11.30;99.90;;;;;;8330458;28;19928;-71
2021/10/31 21:01:23;;;;;;;;;;;11.30;99.90;;;;;;8331409;28;20395;-71
2021/10/31 21:05:25;;;;;;;;;;;11.30;99.90;;;;;;8327342;28;20027;-72
2021/10/31 21:09:29;;;;;;;;;;;11.20;99.90;;;;;;8346508;28;20470;-71
2021/10/31 21:13:31;;;;;;;;;;;11.20;99.90;;;;;;8346298;28;19925;-72
2021/10/31 21:17:33;;;;;;;;;;;11.20;99.90;;;;;;8326196;28;19923;-71
2021/10/31 21:21:35;;;;;;;;;;;11.10;99.90;;;;;;8330727;28;19920;-71
2021/10/31 21:25:37;;;;;;;;;;;11.10;99.90;;;;;;8331230;28;20285;-71
2021/10/31 21:29:38;;;;;;;;;;;11.10;99.90;;;;;;8328227;28;19971;-72
2021/10/31 21:33:42;;;;;;;;;;;11.10;99.90;;;;;;8329658;28;19925;-72
2021/10/31 21:37:44;;;;;;;;;;;11.10;99.90;;;;;;8343742;28;19929;-71
2021/10/31 21:41:46;;;;;;;;;;;11.00;99.90;;;;;;8330568;28;19921;-72
2021/10/31 21:45:49;;;;;;;;;;;11.00;99.90;;;;;;8330679;28;19921;-72
2021/10/31 21:49:51;;;;;;;;;;;11.00;99.90;;;;;;8328331;28;19931;-72
2021/10/31 21:53:53;;;;;;;;;;;11.00;99.90;;;;;;8337243;28;19932;-71
2021/10/31 21:57:54;;;;;;;;;;;11.00;99.90;;;;;;8326635;28;19928;-71
2021/10/31 22:01:56;;;;;;;;;;;11.00;99.90;;;;;;8352110;28;19928;-71
2021/10/31 22:05:57;;;;;;;;;;;11.00;99.90;;;;;;8359527;28;19921;-72
2021/10/31 22:09:59;;;;;;;;;;;11.00;99.90;;;;;;8360950;28;19971;-71
2021/10/31 22:14:03;;;;;;;;;;;10.90;99.90;;;;;;8370078;28;20352;-72
2021/10/31 22:18:05;;;;;;;;;;;10.90;99.90;;;;;;8362679;28;20335;-71
2021/10/31 22:22:07;;;;;;;;;;;10.90;99.90;;;;;;8359217;28;19927;-71
2021/10/31 22:26:09;;;;;;;;;;;10.90;99.90;;;;;;8361072;28;19926;-72
2021/10/31 22:30:10;;;;;;;;;;;10.90;99.90;;;;;;8358003;28;20383;-72
2021/10/31 22:34:12;;;;;;;;;;;10.90;99.90;;;;;;8387227;28;19928;-71
2021/10/31 22:38:14;;;;;;;;;;;10.90;99.90;;;;;;8359484;28;20295;-71
2021/10/31 22:42:16;;;;;;;;;;;10.90;99.90;;;;;;8360208;28;19928;-71
2021/10/31 22:46:17;;;;;;;;;;;10.90;99.90;;;;;;8363780;28;19928;-71
2021/10/31 22:50:19;;;;;;;;;;;10.80;99.90;;;;;;8364966;28;19966;-71
2021/10/31 22:54:21;;;;;;;;;;;10.80;99.90;;;;;;8368657;28;19920;-72
2021/10/31 22:58:23;;;;;;;;;;;10.80;99.90;;;;;;8355185;28;20539;-72
2021/10/31 23:02:25;;;;;;;;;;;10.80;99.90;;;;;;8356481;28;19990;-72
2021/10/31 23:06:27;;;;;;;;;;;10.80;99.90;;;;;;8357834;28;19925;-71
2021/10/31 23:10:29;;;;;;;;;;;10.80;99.90;;;;;;8361283;28;19921;-72
2021/10/31 23:14:31;;;;;;;;;;;10.80;99.90;;;;;;8360574;28;19928;-71